Latest Weather Observations for Nhill Aerodrome

IDV60801

Issued at 5:42 pm EST Sunday 15 September 2019 (issued every 10 minutes, with the page automatically refreshed every 10 minutes)

About weather observations | Map of weather stations | Latest weather observations for VIC | Other Formats
Station Details ID: 078015 Name: NHILL AERODROME Lat: -36.31 Lon: 141.65 Height: 138.9 m
Data from the previous 72 hours. | See also: Recent months at Nhill Aerodrome
Date/Time
EST
Temp
°C
App
Temp
°C
Dew
Point
°C
Rel
Hum
%
Delta-T
°C
Wind Press
QNH
hPa
Press
MSL
hPa
Rain since
9am
mm
Dir  Spd
km/h
Gust
km/h
Spd
kts
Gust
kts
15/05:30pm 18.9 18.7 14.6 76 2.5 NW 9 13 5 7 1016.4 1016.4 0.0
15/05:00pm 19.3 20.2 15.0 76 2.5 WSW 4 7 2 4 1016.1 1016.1 0.0
15/04:30pm 18.9 18.9 15.2 79 2.2 SW 9 11 5 6 1016.0 1016.0 0.0
15/04:00pm 19.8 20.4 14.2 70 3.3 NNE 4 11 2 6 1015.1 1015.1 0.0
15/03:30pm 20.1 18.5 13.8 67 3.6 SW 15 17 8 9 1015.8 1015.8 0.0
15/03:00pm 21.1 19.2 13.0 60 4.6 SW 15 20 8 11 1015.9 1015.9 0.0
15/02:30pm 22.2 19.9 11.6 51 6.0 W 15 19 8 10 1015.7 1015.7 0.0
15/02:00pm 22.4 19.6 11.5 50 6.1 W 17 20 9 11 1015.7 1015.7 0.0
15/01:30pm 22.2 19.1 10.4 47 6.5 WNW 17 24 9 13 1016.1 1016.1 0.0
15/01:00pm 22.0 18.5 10.8 49 6.2 W 20 24 11 13 1016.6 1016.6 0.0
15/12:30pm 21.9 19.0 11.0 50 6.1 WNW 17 22 9 12 1016.8 1016.8 0.0
15/12:00pm 21.2 17.5 10.1 49 6.0 WNW 20 30 11 16 1017.1 1017.2 0.0
15/11:30am 21.5 17.7 9.7 47 6.4 W 20 28 11 15 1017.8 1017.9 0.0
15/11:00am 21.6 17.8 11.0 51 5.9 WNW 22 30 12 16 1017.9 1018.0 0.0
15/10:30am 21.7 17.8 9.6 46 6.5 NW 20 32 11 17 1017.9 1018.0 0.0
15/10:00am 20.4 15.6 8.7 47 6.2 NW 24 33 13 18 1018.0 1018.1 0.0
15/09:30am 18.8 15.6 9.8 56 4.8 NNW 17 24 9 13 1017.9 1018.0 0.0
15/09:00am 16.9 13.2 8.1 56 4.5 NNW 17 24 9 13 1018.3 1018.4 0.0
15/08:30am 15.5 12.1 7.5 59 4.0 NNW 15 19 8 10 1018.6 1018.7 0.0
15/08:00am 15.0 12.6 6.8 58 4.0 NNW 9 13 5 7 1018.4 1018.5 0.0
15/07:30am 14.6 12.0 6.2 57 4.1 NNW 9 13 5 7 1018.1 1018.2 0.0
15/07:00am 14.9 11.5 5.7 54 4.4 N 13 19 7 10 1017.8 1017.9 0.0
15/06:30am 15.0 11.1 5.2 52 4.7 N 15 22 8 12 1017.7 1017.8 0.0
15/06:00am 14.9 10.9 5.1 52 4.6 N 15 20 8 11 1017.8 1017.9 0.0
15/05:30am 15.1 10.9 5.6 53 4.6 N 17 24 9 13 1017.7 1017.8 0.0
15/05:00am 14.5 11.2 6.3 58 4.0 N 13 20 7 11 1017.8 1017.9 0.0
15/04:30am 15.1 11.9 6.7 57 4.1 N 13 20 7 11 1018.0 1018.1 0.0
15/04:00am 15.1 12.0 7.4 60 3.8 N 13 19 7 10 1018.4 1018.5 0.0
15/03:30am 15.4 12.6 8.4 63 3.6 NNW 13 17 7 9 1018.9 1019.0 0.0
15/03:00am 14.5 12.1 8.7 68 2.9 NNW 11 15 6 8 1019.5 1019.6 0.0
15/02:30am 14.1 12.5 8.9 71 2.7 NNW 7 11 4 6 1019.8 1019.9 0.0
15/02:00am 14.5 12.2 9.1 70 2.8 NNW 11 13 6 7 1020.3 1020.4 0.0
15/01:30am 15.0 13.5 9.1 68 3.0 NNW 7 9 4 5 1020.2 1020.3 0.0
15/01:00am 16.0 13.3 9.0 63 3.6 NNW 13 20 7 11 1020.1 1020.2 0.0
15/12:30am 16.0 13.4 9.2 64 3.5 N 13 22 7 12 1020.0 1020.1 0.0
15/12:00am 16.1 13.2 9.8 66 3.3 N 15 20 8 11 1020.5 1020.6 0.0
 
Date/Time
EST
Temp
°C
App
Temp
°C
Dew
Point
°C
Rel
Hum
%
Delta-T
°C
Wind Press
QNH
hPa
Press
MSL
hPa
Rain since
9am
mm
Dir  Spd
km/h
Gust
km/h
Spd
kts
Gust
kts
14/11:30pm 15.1 13.2 9.0 67 3.1 NNW 9 13 5 7 1021.6 1021.6 0.0
14/11:00pm 15.1 12.8 7.4 60 3.8 N 9 13 5 7 1021.9 1021.9 0.0
14/10:30pm 14.2 12.0 6.1 58 3.9 N 7 11 4 6 1022.2 1022.2 0.0
14/10:00pm 13.6 11.9 5.7 59 3.7 N 4 9 2 5 1022.8 1022.8 0.0
14/09:30pm 14.4 12.4 6.3 58 3.9 N 6 9 3 5 1023.0 1023.1 0.0
14/09:00pm 14.9 13.3 6.2 56 4.2 NNE 4 7 2 4 1023.3 1023.4 0.0
14/08:30pm 15.0 12.9 6.0 55 4.3 NNE 6 9 3 5 1023.1 1023.2 0.0
14/08:00pm 14.6 14.0 7.4 62 3.6 CALM 0 6 0 3 1023.2 1023.3 0.0
14/07:30pm 14.6 14.0 7.2 61 3.7 CALM 0 0 0 0 1023.3 1023.4 0.0
14/07:00pm 16.7 15.9 6.5 51 5.0 CALM 0 0 0 0 1023.1 1023.2 0.0
14/06:30pm 17.4 16.8 7.2 51 5.1 CALM 0 0 0 0 1023.2 1023.3 0.0
14/06:00pm 19.1 18.6 7.8 48 5.8 CALM 0 4 0 2 1023.4 1023.5 0.0
14/05:30pm 20.0 17.8 6.0 40 7.0 WSW 7 9 4 5 1023.3 1023.4 0.0
14/05:00pm 20.6 17.2 3.8 33 8.1 W 11 15 6 8 1023.5 1023.6 0.0
14/04:30pm 20.7 16.2 2.0 29 8.7 W 15 20 8 11 1023.6 1023.7 0.0
14/04:00pm 20.8 16.2 1.6 28 8.8 WNW 15 24 8 13 1023.6 1023.7 0.0
14/03:30pm 20.5 15.5 1.4 28 8.8 NW 17 20 9 11 1023.6 1023.7 0.0
14/03:00pm 20.3 15.9 4.8 36 7.6 WNW 17 26 9 14 1023.9 1024.0 0.0
14/02:30pm 20.4 17.2 6.7 41 7.0 NW 13 17 7 9 1024.2 1024.3 0.0
14/02:00pm 18.9 15.1 5.7 42 6.5 WNW 15 24 8 13 1024.7 1024.8 0.0
14/01:30pm 18.0 14.3 6.5 47 5.7 NW 15 20 8 11 1025.2 1025.3 0.0
14/01:00pm 17.7 15.5 8.0 53 4.9 N 9 20 5 11 1025.0 1025.1 0.0
14/12:30pm 16.5 14.3 8.0 57 4.3 NNE 9 20 5 11 1025.2 1025.3 0.0
14/12:00pm 15.1 12.4 7.2 59 3.9 NNE 11 19 6 10 1025.8 1025.9 0.0
14/11:30am 14.0 11.6 7.1 63 3.4 NNE 9 15 5 8 1026.5 1026.6 0.0
14/11:00am 13.0 11.0 7.0 67 2.9 NW 7 13 4 7 1027.1 1027.2 0.0
14/10:30am 12.6 11.7 7.9 73 2.3 WSW 2 9 1 5 1027.5 1027.6 0.0
14/10:00am 11.1 9.0 6.8 75 2.0 W 7 11 4 6 1027.9 1028.0 0.0
14/09:30am 10.1 8.0 6.8 80 1.6 W 7 11 4 6 1028.0 1028.1 0.0
14/09:00am 9.6 7.7 9.0 96 0.3 W 9 11 5 6 1028.0 1028.1 0.0
14/08:30am 8.7 7.1 8.7 100 0.0 WSW 7 9 4 5 1028.0 1028.1 0.0
14/08:00am 7.2 6.5 7.1 99 0.0 CALM 0 0 0 0 1027.8 1027.9 0.0
14/07:30am 6.1 5.2 6.0 99 0.0 CALM 0 0 0 0 1027.5 1027.6 0.0
14/07:00am 5.2 4.1 5.1 99 0.0 CALM 0 0 0 0 1027.5 1027.6 0.0
14/06:30am 5.8 4.8 5.7 99 0.0 CALM 0 0 0 0 1027.0 1027.1 0.0
14/06:00am 5.7 4.3 5.6 99 0.0 W 2 7 1 4 1026.8 1026.9 0.0
14/05:30am 5.5 4.5 5.4 99 0.0 CALM 0 6 0 3 1026.9 1027.0 0.0
14/05:00am 6.0 5.1 5.9 99 0.0 CALM 0 0 0 0 1026.9 1027.0 0.0
14/04:30am 5.9 4.9 5.6 98 0.1 CALM 0 0 0 0 1026.8 1026.9 0.0
14/04:00am 7.1 5.1 7.0 99 0.0 W 7 7 4 4 1026.7 1026.8 0.0
14/03:30am 6.8 4.9 6.5 98 0.1 W 6 7 3 4 1026.8 1026.9 0.0
14/03:00am 7.2 5.3 6.9 98 0.1 W 6 9 3 5 1027.0 1027.1 0.0
14/02:30am 7.8 5.5 7.5 98 0.1 W 9 11 5 6 1027.2 1027.3 0.0
14/02:00am 8.1 6.8 7.7 97 0.2 WSW 4 7 2 4 1027.4 1027.5 0.0
14/01:30am 8.5 6.4 8.1 97 0.2 WSW 9 11 5 6 1027.4 1027.5 0.0
14/01:00am 8.0 6.1 7.4 96 0.3 SW 7 9 4 5 1027.3 1027.4 0.0
14/12:30am 8.1 6.1 7.2 94 0.4 SW 7 9 4 5 1027.5 1027.6 0.0
14/12:00am 8.2 5.4 7.1 93 0.5 SW 11 13 6 7 1027.2 1027.3 0.0
 
Date/Time
EST
Temp
°C
App
Temp
°C
Dew
Point
°C
Rel
Hum
%
Delta-T
°C
Wind Press
QNH
hPa
Press
MSL
hPa
Rain since
9am
mm
Dir  Spd
km/h
Gust
km/h
Spd
kts
Gust
kts
13/11:30pm 9.2 6.3 8.0 92 0.6 SW 13 15 7 8 1027.2 1027.3 0.0
13/11:00pm 9.5 6.9 7.9 90 0.8 WSW 11 11 6 6 1027.5 1027.6 0.0
13/10:30pm 10.3 7.5 8.4 88 0.9 WSW 13 17 7 9 1027.3 1027.4 0.0
13/10:00pm 11.0 7.6 9.3 89 0.9 WSW 17 20 9 11 1027.3 1027.4 0.0
13/09:30pm 11.2 8.1 8.8 85 1.2 WSW 15 19 8 10 1026.8 1026.9 0.0
13/09:00pm 12.5 9.1 9.3 81 1.6 WSW 17 24 9 13 1026.5 1026.6 0.0
13/08:30pm 12.9 8.7 9.7 81 1.6 SW 22 30 12 16 1026.6 1026.7 0.0
13/08:00pm 12.3 9.8 9.7 84 1.3 WSW 13 19 7 10 1026.4 1026.5 0.0
13/07:30pm 11.4 8.2 8.6 83 1.4 W 15 17 8 9 1025.9 1026.0 0.0
13/07:00pm 12.5 9.1 9.1 80 1.7 W 17 20 9 11 1025.6 1025.7 0.0
13/06:30pm 13.6 10.3 9.5 76 2.1 W 17 22 9 12 1025.4 1025.5 0.0
13/06:00pm 15.2 11.3 9.3 68 3.0 W 20 26 11 14 1024.9 1025.0 0.0
13/05:30pm 16.1 11.8 9.5 65 3.5 W 22 32 12 17 1024.7 1024.8 0.0
13/05:00pm 16.5 11.8 9.2 62 3.8 W 24 32 13 17 1024.7 1024.8 0.0
13/04:30pm 16.9 12.9 9.1 60 4.1 W 20 32 11 17 1024.7 1024.8 0.0
13/04:00pm 16.5 11.7 8.7 60 4.0 W 24 30 13 16 1024.7 1024.8 0.0
13/03:30pm 16.4 11.7 9.3 63 3.7 W 24 32 13 17 1024.6 1024.7 0.0
13/03:00pm 15.8 11.8 9.0 64 3.5 W 20 28 11 15 1024.8 1024.9 0.0
13/02:30pm 15.5 10.3 9.0 65 3.4 WSW 26 32 14 17 1025.1 1025.2 0.0
13/02:00pm 15.4 10.6 8.9 65 3.3 W 24 32 13 17 1025.2 1025.3 0.0
13/01:30pm 14.6 10.7 7.2 61 3.7 WNW 17 26 9 14 1024.5 1024.6 0.0
13/01:00pm 13.8 10.1 7.8 67 3.0 W 17 22 9 12 1025.1 1025.2 0.0
13/12:30pm 13.2 9.9 7.9 70 2.6 WNW 15 20 8 11 1025.6 1025.7 0.0
13/12:00pm 12.0 7.8 7.3 73 2.3 WSW 19 28 10 15 1026.4 1026.5 0.0
13/11:30am 11.9 8.4 7.2 73 2.3 W 15 20 8 11 1026.4 1026.5 0.0
13/11:00am 10.7 7.1 6.8 77 1.8 W 15 22 8 12 1026.5 1026.6 0.0
13/10:30am 10.6 6.3 7.1 79 1.7 W 19 28 10 15 1027.0 1027.1 0.0
13/10:00am 9.9 5.1 7.3 84 1.2 WSW 22 30 12 16 1027.3 1027.4 0.0
13/09:30am 10.0 6.4 9.9 99 0.1 WSW 19 26 10 14 1027.1 1027.2 0.0
13/09:00am 8.2 6.1 8.2 100 0.0 WNW 9 13 5 7 1026.6 1026.7 0.0
13/08:30am 5.7 4.7 5.6 99 0.0 CALM 0 4 0 2 1026.4 1026.5 0.0
13/08:00am 3.1 0.5 3.0 99 0.0 W 6 9 3 5 1026.1 1026.2 0.0
13/07:30am 3.1 1.6 3.0 99 0.0 CALM 0 0 0 0 1025.4 1025.5 0.0
13/07:00am 1.0 -2.2 0.9 99 0.0 NNW 7 11 4 6 1025.4 1025.5 0.0
13/06:30am 2.9 0.2 2.8 99 0.0 NNW 6 7 3 4 1025.0 1025.1 0.0
13/06:00am 3.2 0.4 3.1 99 0.0 NW 7 11 4 6 1025.6 1025.7 0.0
13/05:30am 2.6 -0.1 2.5 99 0.0 WNW 6 9 3 5 1025.6 1025.7 0.0
13/05:00am 2.4 -0.4 2.3 99 0.0 WNW 6 7 3 4 1025.3 1025.4 0.0
13/04:30am 2.2 -0.6 2.1 99 0.0 SSE 6 9 3 5 1024.8 1024.9 0.0
13/04:00am 3.0 1.4 2.7 98 0.1 CALM 0 0 0 0 1024.3 1024.4 0.0
13/03:30am 4.2 1.6 4.1 99 0.0 SSE 7 7 4 4 1024.2 1024.3 0.0
13/03:00am 5.0 2.5 4.9 99 0.0 SSE 7 9 4 5 1024.3 1024.4 0.0
13/02:30am 4.5 1.1 4.2 98 0.1 SSE 11 13 6 7 1024.4 1024.5 0.0
13/02:00am 4.3 0.5 4.0 98 0.1 S 13 13 7 7 1024.6 1024.7 0.0
13/01:30am 4.2 0.4 3.8 97 0.2 S 13 17 7 9 1024.9 1025.0 0.0
13/01:00am 5.0 1.7 4.4 96 0.3 S 11 11 6 6 1025.2 1025.3 0.0
13/12:30am 5.4 2.1 4.7 95 0.3 SSW 11 11 6 6 1025.2 1025.3 0.0
13/12:00am 6.3 3.9 5.4 94 0.4 SSW 7 9 4 5 1025.3 1025.4 0.0
 
Date/Time
EST
Temp
°C
App
Temp
°C
Dew
Point
°C
Rel
Hum
%
Delta-T
°C
Wind Press
QNH
hPa
Press
MSL
hPa
Rain since
9am
mm
Dir  Spd
km/h
Gust
km/h
Spd
kts
Gust
kts
12/11:30pm 7.0 4.3 5.8 92 0.5 SSW 9 9 5 5 1025.3 1025.4 0.0
12/11:00pm 7.8 5.6 6.4 91 0.6 SSW 7 9 4 5 1025.4 1025.5 0.0
12/10:30pm 7.6 5.0 6.1 90 0.7 SSW 9 11 5 6 1025.3 1025.4 0.0
12/10:00pm 8.0 5.4 6.1 88 0.9 WSW 9 11 5 6 1025.4 1025.5 0.0
12/09:30pm 9.6 7.9 7.4 86 1.1 WNW 6 7 3 4 1025.5 1025.6 0.0
12/09:00pm 10.0 8.3 7.6 85 1.1 SW 6 9 3 5 1025.1 1025.2 0.0
12/08:30pm 9.6 7.7 6.9 83 1.3 SW 6 9 3 5 1024.9 1025.0 0.0
12/08:00pm 10.9 8.3 7.8 81 1.5 SW 11 15 6 8 1024.7 1024.8 0.0
12/07:30pm 11.6 8.6 7.9 78 1.8 SW 13 17 7 9 1024.3 1024.4 0.0
12/07:00pm 12.6 9.4 8.5 76 2.0 WSW 15 20 8 11 1024.0 1024.1 0.0
12/06:30pm 13.2 9.9 8.1 71 2.5 WSW 15 19 8 10 1023.5 1023.6 0.0
12/06:00pm 15.2 11.8 9.1 67 3.1 SW 17 19 9 10 1023.1 1023.2 0.0

Other formats

Comma delimited format used in spreadsheet applications
http://www.bom.gov.au/fwo/IDV60801/IDV60801.94827.axf

JavaScript Object Notation format (JSON) in row-major order
http://www.bom.gov.au/fwo/IDV60801/IDV60801.94827.json

Data quality

Most of these data are generated automatically and are frequently updated. Quality checks on data are not normally performed. It is possible for incorrect values to appear. Refer to information at About Latest Weather Observations and please check the disclaimer before using these data.